createdAt,value
2023-02-19T00:01:58.647Z,99.90
2023-02-19T00:07:01.033Z,99.90
2023-02-19T00:12:03.517Z,99.90
2023-02-19T00:17:05.826Z,99.90
2023-02-19T00:22:08.127Z,99.90
2023-02-19T00:27:10.438Z,99.90
2023-02-19T00:32:12.892Z,99.90
2023-02-19T00:37:15.309Z,99.90
2023-02-19T00:42:17.618Z,99.90
2023-02-19T00:47:19.959Z,99.90
2023-02-19T00:52:22.315Z,99.90
2023-02-19T00:57:24.640Z,99.90
2023-02-19T01:02:27.357Z,99.90
2023-02-19T01:07:29.641Z,99.90
2023-02-19T01:12:32.437Z,99.90
2023-02-19T01:17:36.394Z,99.90
2023-02-19T01:22:38.646Z,99.90
2023-02-19T01:27:41.929Z,99.90
2023-02-19T01:32:44.353Z,99.90
2023-02-19T01:37:46.633Z,99.90
2023-02-19T01:42:49.030Z,99.90
2023-02-19T01:47:58.025Z,99.90
2023-02-19T01:53:05.388Z,99.90
2023-02-19T01:58:09.733Z,99.90
2023-02-19T02:03:13.758Z,99.90
2023-02-19T02:08:36.333Z,99.90
2023-02-19T02:13:40.222Z,99.90
2023-02-19T02:18:59.529Z,99.90
2023-02-19T02:24:29.406Z,99.90
2023-02-19T02:29:37.093Z,99.90
2023-02-19T02:34:58.236Z,99.90
2023-02-19T02:40:01.745Z,99.90
2023-02-19T02:45:37.427Z,99.90
2023-02-19T02:51:04.422Z,99.90
2023-02-19T02:56:13.907Z,99.90
2023-02-19T03:01:59.045Z,99.90
2023-02-19T03:07:08.037Z,99.90
2023-02-19T03:12:51.060Z,99.90
2023-02-19T03:18:17.641Z,99.90
2023-02-19T03:23:43.143Z,99.90
2023-02-19T03:29:07.142Z,99.90
2023-02-19T03:34:16.625Z,99.90
2023-02-19T03:39:22.444Z,99.90
2023-02-19T03:44:46.764Z,99.90
2023-02-19T03:49:53.302Z,99.90
2023-02-19T03:55:18.017Z,99.90
2023-02-19T04:00:49.211Z,99.90
2023-02-19T04:05:58.438Z,99.90
2023-02-19T04:11:01.767Z,99.90
2023-02-19T04:16:12.288Z,99.90
2023-02-19T04:21:15.592Z,99.90
2023-02-19T04:26:19.964Z,99.90
2023-02-19T04:31:23.127Z,99.90
2023-02-19T04:36:25.527Z,99.90
2023-02-19T04:41:27.835Z,99.90
2023-02-19T04:46:30.277Z,99.90
2023-02-19T04:51:32.664Z,99.90
2023-02-19T04:56:35.144Z,99.90
2023-02-19T05:01:37.477Z,99.90
2023-02-19T05:06:40.220Z,99.90
2023-02-19T05:11:42.620Z,99.90
2023-02-19T05:16:44.980Z,99.90
2023-02-19T05:21:48.765Z,99.90
2023-02-19T05:26:51.227Z,99.90
2023-02-19T05:31:53.815Z,99.90
2023-02-19T05:36:56.230Z,99.90
2023-02-19T05:41:58.683Z,99.90
2023-02-19T05:47:01.024Z,99.90
2023-02-19T05:52:03.776Z,99.90
2023-02-19T05:57:06.180Z,99.90
2023-02-19T06:02:10.116Z,99.90
2023-02-19T06:07:13.182Z,99.90
2023-02-19T06:12:15.475Z,99.90
2023-02-19T06:17:17.835Z,99.90
2023-02-19T06:22:20.128Z,99.90
2023-02-19T06:27:22.503Z,99.90
2023-02-19T06:32:25.028Z,99.90
2023-02-19T06:37:27.456Z,99.90
2023-02-19T06:42:32.892Z,99.90
2023-02-19T06:47:35.358Z,99.90
2023-02-19T06:52:37.692Z,99.90
2023-02-19T06:57:40.030Z,99.90
2023-02-19T07:02:42.301Z,99.90
2023-02-19T07:07:46.620Z,99.90
2023-02-19T07:12:48.975Z,99.90
2023-02-19T07:17:51.394Z,99.90
2023-02-19T07:22:53.720Z,99.90
2023-02-19T07:27:56.057Z,99.90
2023-02-19T07:32:58.378Z,99.90
2023-02-19T07:38:00.646Z,99.90
2023-02-19T07:43:02.965Z,99.90
2023-02-19T07:48:05.275Z,99.90
2023-02-19T07:53:08.033Z,99.90
2023-02-19T07:58:10.488Z,99.90
2023-02-19T08:03:12.977Z,99.90
2023-02-19T08:08:15.806Z,99.90
2023-02-19T08:13:25.417Z,99.90
2023-02-19T08:18:30.150Z,99.90
2023-02-19T08:23:32.602Z,99.90
2023-02-19T08:28:34.950Z,99.90
2023-02-19T08:33:38.103Z,99.90
2023-02-19T08:38:40.514Z,99.90
2023-02-19T08:43:43.284Z,99.90
2023-02-19T08:48:45.642Z,99.90
2023-02-19T08:53:48.034Z,99.90
2023-02-19T08:58:50.446Z,99.90
2023-02-19T09:03:53.390Z,99.90
2023-02-19T09:08:55.845Z,99.90
2023-02-19T09:13:58.164Z,99.90
2023-02-19T09:19:00.507Z,99.90
2023-02-19T09:24:02.805Z,99.90
2023-02-19T09:29:05.053Z,99.90
2023-02-19T09:34:07.491Z,99.90
2023-02-19T09:39:12.484Z,99.80
2023-02-19T09:44:24.532Z,99.00
2023-02-19T09:49:29.716Z,99.10
2023-02-19T09:54:33.959Z,98.90
2023-02-19T09:59:48.010Z,99.10
2023-02-19T10:04:52.228Z,98.60
2023-02-19T10:09:58.976Z,97.30
2023-02-19T10:15:27.844Z,93.70
2023-02-19T10:20:30.303Z,94.60
2023-02-19T10:25:34.810Z,93.20
2023-02-19T10:30:37.533Z,92.10
2023-02-19T10:36:02.217Z,90.20
2023-02-19T10:41:23.454Z,90.60
2023-02-19T10:46:29.091Z,90.60
2023-02-19T10:51:36.935Z,88.30
2023-02-19T10:56:40.769Z,90.30
2023-02-19T11:02:00.924Z,84.50
2023-02-19T11:07:17.284Z,85.90
2023-02-19T11:12:31.994Z,83.50
2023-02-19T11:17:34.360Z,81.60
2023-02-19T11:22:40.128Z,79.70
2023-02-19T11:27:59.201Z,76.90
2023-02-19T11:33:16.721Z,78.20
2023-02-19T11:38:19.708Z,73.40
2023-02-19T11:43:28.128Z,68.30
2023-02-19T11:48:53.825Z,68.70
2023-02-19T11:54:23.140Z,69.60
2023-02-19T11:59:38.363Z,65.90
2023-02-19T12:04:56.545Z,64.70
2023-02-19T12:10:49.624Z,65.30
2023-02-19T12:16:37.102Z,59.50
2023-02-19T12:22:09.310Z,62.30
2023-02-19T12:27:27.405Z,64.60
2023-02-19T12:32:42.299Z,64.30
2023-02-19T12:38:09.970Z,68.00
2023-02-19T12:43:22.389Z,65.00
2023-02-19T12:48:36.769Z,65.50
2023-02-19T12:53:57.008Z,67.80
2023-02-19T12:59:04.159Z,64.40
2023-02-19T13:04:26.232Z,64.00
2023-02-19T13:09:35.693Z,63.90
2023-02-19T13:14:44.021Z,62.80
2023-02-19T13:19:48.480Z,61.80
2023-02-19T13:24:51.759Z,60.50
2023-02-19T13:30:05.241Z,56.70
2023-02-19T13:35:19.251Z,54.70
2023-02-19T13:40:42.908Z,55.50
2023-02-19T13:45:46.322Z,57.70
2023-02-19T13:51:26.991Z,59.40
2023-02-19T13:56:34.718Z,56.90
2023-02-19T14:01:54.761Z,55.20
2023-02-19T14:07:05.782Z,52.60
2023-02-19T14:12:08.018Z,51.40
2023-02-19T14:17:10.227Z,50.40
2023-02-19T14:22:52.004Z,48.90
2023-02-19T14:28:22.403Z,49.40
2023-02-19T14:33:34.809Z,51.40
2023-02-19T14:38:46.925Z,49.10
2023-02-19T14:43:53.706Z,46.00
2023-02-19T14:48:58.024Z,45.20
2023-02-19T14:54:09.119Z,44.60
2023-02-19T14:59:11.340Z,43.50
2023-02-19T15:04:25.522Z,46.30
2023-02-19T15:09:35.288Z,45.90
2023-02-19T15:14:40.060Z,44.70
2023-02-19T15:19:43.953Z,44.30
2023-02-19T15:24:48.503Z,43.50
2023-02-19T15:29:53.650Z,43.70
2023-02-19T15:35:04.136Z,44.20
2023-02-19T15:40:07.735Z,50.70
2023-02-19T15:45:21.131Z,51.80
2023-02-19T15:50:31.735Z,54.20
2023-02-19T15:55:39.602Z,54.40
2023-02-19T16:00:56.705Z,55.10
2023-02-19T16:06:14.903Z,56.40
2023-02-19T16:11:23.142Z,57.80
2023-02-19T16:16:36.254Z,59.10
2023-02-19T16:21:39.141Z,60.00
2023-02-19T16:26:43.226Z,61.20
2023-02-19T16:31:55.653Z,62.40
2023-02-19T16:36:58.002Z,62.70
2023-02-19T16:42:00.209Z,64.00
2023-02-19T16:47:04.754Z,63.20
2023-02-19T16:52:06.996Z,64.00
2023-02-19T16:57:09.234Z,64.60
2023-02-19T17:02:17.668Z,65.00
2023-02-19T17:07:20.019Z,65.90
2023-02-19T17:12:22.830Z,65.60
2023-02-19T17:17:25.146Z,66.60
2023-02-19T17:22:27.721Z,67.70
2023-02-19T17:27:29.971Z,67.70
2023-02-19T17:32:32.292Z,68.80
2023-02-19T17:37:34.615Z,69.50
2023-02-19T17:42:36.831Z,69.70
2023-02-19T17:47:39.115Z,70.00
2023-02-19T17:52:41.824Z,70.70
2023-02-19T17:57:49.008Z,71.60
2023-02-19T18:02:51.772Z,72.20
2023-02-19T18:07:54.309Z,72.80
2023-02-19T18:12:56.776Z,73.20
2023-02-19T18:17:59.247Z,73.70
2023-02-19T18:23:02.522Z,74.10
2023-02-19T18:28:05.274Z,74.90
2023-02-19T18:33:07.675Z,75.40
2023-02-19T18:38:09.911Z,76.10
2023-02-19T18:43:12.899Z,76.90
2023-02-19T18:48:15.179Z,77.00
2023-02-19T18:53:17.440Z,78.10
2023-02-19T18:58:20.007Z,77.40
2023-02-19T19:03:22.249Z,77.20
2023-02-19T19:08:24.763Z,77.40
2023-02-19T19:13:26.996Z,77.60
2023-02-19T19:18:31.159Z,77.70
2023-02-19T19:23:33.593Z,78.10
2023-02-19T19:28:36.387Z,79.00
2023-02-19T19:33:38.810Z,79.70
2023-02-19T19:38:41.375Z,80.30
2023-02-19T19:43:43.825Z,80.90
2023-02-19T19:48:50.651Z,81.50
2023-02-19T19:53:52.871Z,82.00
2023-02-19T19:58:55.156Z,82.50
2023-02-19T20:03:57.402Z,83.40
2023-02-19T20:09:00.154Z,83.90
2023-02-19T20:14:02.534Z,84.70
2023-02-19T20:19:04.914Z,85.50
2023-02-19T20:24:07.732Z,86.50
2023-02-19T20:29:10.470Z,86.80
2023-02-19T20:34:12.733Z,86.70
2023-02-19T20:39:19.260Z,86.90
2023-02-19T20:44:21.646Z,87.10
2023-02-19T20:49:28.515Z,87.40
2023-02-19T20:54:32.791Z,87.60
2023-02-19T20:59:35.501Z,88.10
2023-02-19T21:04:39.382Z,88.60
2023-02-19T21:09:42.003Z,88.30
2023-02-19T21:14:45.254Z,88.30
2023-02-19T21:19:49.893Z,88.30
2023-02-19T21:24:53.867Z,88.60
2023-02-19T21:29:56.078Z,89.10
2023-02-19T21:34:58.291Z,89.00
2023-02-19T21:40:00.650Z,89.10
2023-02-19T21:45:03.759Z,88.80
2023-02-19T21:50:06.933Z,89.20
2023-02-19T21:55:09.200Z,89.10
2023-02-19T22:00:12.143Z,88.60
2023-02-19T22:05:14.471Z,89.20
2023-02-19T22:10:17.840Z,89.10
2023-02-19T22:15:20.082Z,88.70
2023-02-19T22:20:22.329Z,88.90
2023-02-19T22:25:25.038Z,89.10
2023-02-19T22:30:27.503Z,89.60
2023-02-19T22:35:29.958Z,89.10
2023-02-19T22:40:32.322Z,89.10
2023-02-19T22:45:34.593Z,90.00
2023-02-19T22:50:36.866Z,89.60
2023-02-19T22:55:39.127Z,89.70
2023-02-19T23:00:41.363Z,89.30
2023-02-19T23:05:43.659Z,90.50
2023-02-19T23:10:45.916Z,90.20
2023-02-19T23:15:48.199Z,89.90
2023-02-19T23:20:50.455Z,89.30
2023-02-19T23:25:52.739Z,89.20
2023-02-19T23:30:55.103Z,89.20
2023-02-19T23:35:57.539Z,89.30
2023-02-19T23:41:00.319Z,89.10
2023-02-19T23:46:03.154Z,89.80
2023-02-19T23:51:05.582Z,89.70
2023-02-19T23:56:07.963Z,89.90
